sensor_id;sensor_type;location;lat;lon;timestamp;pressure;altitude;pressure_sealevel;temperature;humidity
5126;BME280;63008;53.112;8.896;2024-03-02T00:01:39;59163.25;;;-140.20;100.00
5126;BME280;63008;53.112;8.896;2024-03-02T00:03:42;59198.81;;;-140.20;100.00
5126;BME280;63008;53.112;8.896;2024-03-02T00:05:43;59169.53;;;-140.20;100.00
5126;BME280;63008;53.112;8.896;2024-03-02T00:07:47;59144.44;;;-140.20;100.00
5126;BME280;63008;53.112;8.896;2024-03-02T00:09:53;59177.88;;;-140.20;100.00
5126;BME280;63008;53.112;8.896;2024-03-02T00:11:54;59123.53;;;-140.20;100.00
5126;BME280;63008;53.112;8.896;2024-03-02T00:13:56;59207.16;;;-140.20;100.00
5126;BME280;63008;53.112;8.896;2024-03-02T00:15:57;59159.06;;;-140.20;100.00
5126;BME280;63008;53.112;8.896;2024-03-02T00:17:59;59169.53;;;-140.20;100.00
5126;BME280;63008;53.112;8.896;2024-03-02T00:20:00;59144.44;;;-140.20;100.00
5126;BME280;63008;53.112;8.896;2024-03-02T00:22:03;59165.34;;;-140.20;100.00
5126;BME280;63008;53.112;8.896;2024-03-02T00:24:17;59117.25;;;-140.20;100.00
5126;BME280;63008;53.112;8.896;2024-03-02T00:26:20;59161.16;;;-140.20;100.00
5126;BME280;63008;53.112;8.896;2024-03-02T00:28:23;59156.97;;;-140.20;100.00
5126;BME280;63008;53.112;8.896;2024-03-02T00:32:47;59196.72;;;-140.20;100.00
5126;BME280;63008;53.112;8.896;2024-03-02T00:34:48;59167.44;;;-140.20;100.00
5126;BME280;63008;53.112;8.896;2024-03-02T00:36:49;59194.63;;;-140.20;100.00
5126;BME280;63008;53.112;8.896;2024-03-02T00:38:52;59179.97;;;-140.20;100.00
5126;BME280;63008;53.112;8.896;2024-03-02T00:40:54;59161.16;;;-140.20;100.00
5126;BME280;63008;53.112;8.896;2024-03-02T00:42:57;59169.53;;;-140.20;100.00
5126;BME280;63008;53.112;8.896;2024-03-02T00:44:58;59215.53;;;-140.20;100.00
5126;BME280;63008;53.112;8.896;2024-03-02T00:46:59;59165.34;;;-140.20;100.00
5126;BME280;63008;53.112;8.896;2024-03-02T00:49:05;59194.63;;;-140.20;100.00
5126;BME280;63008;53.112;8.896;2024-03-02T00:51:06;59161.16;;;-140.20;100.00
5126;BME280;63008;53.112;8.896;2024-03-02T00:53:10;59173.72;;;-140.20;100.00
5126;BME280;63008;53.112;8.896;2024-03-02T00:55:13;59133.97;;;-140.20;100.00
5126;BME280;63008;53.112;8.896;2024-03-02T00:57:14;59179.97;;;-140.20;100.00
5126;BME280;63008;53.112;8.896;2024-03-02T00:59:16;59182.06;;;-140.20;100.00
5126;BME280;63008;53.112;8.896;2024-03-02T01:01:17;59156.97;;;-140.20;100.00
5126;BME280;63008;53.112;8.896;2024-03-02T01:03:18;59167.44;;;-140.20;100.00
5126;BME280;63008;53.112;8.896;2024-03-02T01:05:20;59142.34;;;-140.20;100.00
5126;BME280;63008;53.112;8.896;2024-03-02T01:07:21;59186.25;;;-140.20;100.00
5126;BME280;63008;53.112;8.896;2024-03-02T01:09:22;59154.88;;;-140.20;100.00
5126;BME280;63008;53.112;8.896;2024-03-02T01:11:22;59161.16;;;-140.20;100.00
5126;BME280;63008;53.112;8.896;2024-03-02T01:13:23;59165.34;;;-140.20;100.00
5126;BME280;63008;53.112;8.896;2024-03-02T01:15:24;59186.25;;;-140.20;100.00
5126;BME280;63008;53.112;8.896;2024-03-02T01:17:25;59156.97;;;-140.20;100.00
5126;BME280;63008;53.112;8.896;2024-03-02T01:19:26;59173.72;;;-140.20;100.00
5126;BME280;63008;53.112;8.896;2024-03-02T01:21:27;59175.81;;;-140.20;100.00
5126;BME280;63008;53.112;8.896;2024-03-02T01:23:28;59152.81;;;-140.20;100.00
5126;BME280;63008;53.112;8.896;2024-03-02T01:25:29;59142.34;;;-140.20;100.00
5126;BME280;63008;53.112;8.896;2024-03-02T01:27:30;59194.63;;;-140.20;100.00
5126;BME280;63008;53.112;8.896;2024-03-02T01:29:31;59209.25;;;-140.20;100.00
5126;BME280;63008;53.112;8.896;2024-03-02T01:31:32;59148.63;;;-140.20;100.00
5126;BME280;63008;53.112;8.896;2024-03-02T01:33:33;59136.06;;;-140.20;100.00
5126;BME280;63008;53.112;8.896;2024-03-02T01:35:34;59175.81;;;-140.20;100.00
5126;BME280;63008;53.112;8.896;2024-03-02T01:37:35;59123.53;;;-140.20;100.00
5126;BME280;63008;53.112;8.896;2024-03-02T01:39:36;59194.63;;;-140.20;100.00
5126;BME280;63008;53.112;8.896;2024-03-02T01:41:37;59169.53;;;-140.20;100.00
5126;BME280;63008;53.112;8.896;2024-03-02T01:43:38;59159.06;;;-140.20;100.00
5126;BME280;63008;53.112;8.896;2024-03-02T01:45:40;59190.44;;;-140.20;100.00
5126;BME280;63008;53.112;8.896;2024-03-02T01:47:40;59184.16;;;-140.20;100.00
5126;BME280;63008;53.112;8.896;2024-03-02T01:49:41;59198.81;;;-140.20;100.00
5126;BME280;63008;53.112;8.896;2024-03-02T01:51:42;59156.97;;;-140.20;100.00
5126;BME280;63008;53.112;8.896;2024-03-02T01:53:43;59169.53;;;-140.20;100.00
5126;BME280;63008;53.112;8.896;2024-03-02T01:55:44;59156.97;;;-140.20;100.00
5126;BME280;63008;53.112;8.896;2024-03-02T01:57:45;59138.16;;;-140.20;100.00
5126;BME280;63008;53.112;8.896;2024-03-02T01:59:48;59161.16;;;-140.20;100.00
5126;BME280;63008;53.112;8.896;2024-03-02T02:01:49;59138.16;;;-140.20;100.00
5126;BME280;63008;53.112;8.896;2024-03-02T02:03:50;59188.34;;;-140.20;100.00
5126;BME280;63008;53.112;8.896;2024-03-02T02:05:51;59188.34;;;-140.20;100.00
5126;BME280;63008;53.112;8.896;2024-03-02T02:07:52;59177.88;;;-140.20;100.00
5126;BME280;63008;53.112;8.896;2024-03-02T02:09:53;59144.44;;;-140.20;100.00
5126;BME280;63008;53.112;8.896;2024-03-02T02:11:54;59177.88;;;-140.20;100.00
5126;BME280;63008;53.112;8.896;2024-03-02T02:13:55;59171.63;;;-140.20;100.00
5126;BME280;63008;53.112;8.896;2024-03-02T02:16:04;59154.88;;;-140.20;100.00
5126;BME280;63008;53.112;8.896;2024-03-02T02:18:06;59217.63;;;-140.20;100.00
5126;BME280;63008;53.112;8.896;2024-03-02T02:20:07;59167.44;;;-140.20;100.00
5126;BME280;63008;53.112;8.896;2024-03-02T02:22:10;59173.72;;;-140.20;100.00
5126;BME280;63008;53.112;8.896;2024-03-02T02:24:10;59192.53;;;-140.20;100.00
5126;BME280;63008;53.112;8.896;2024-03-02T02:26:13;59186.25;;;-140.20;100.00
5126;BME280;63008;53.112;8.896;2024-03-02T02:28:14;59165.34;;;-140.20;100.00
5126;BME280;63008;53.112;8.896;2024-03-02T02:30:21;59192.53;;;-140.20;100.00
5126;BME280;63008;53.112;8.896;2024-03-02T02:32:22;59205.06;;;-140.20;100.00
5126;BME280;63008;53.112;8.896;2024-03-02T02:34:23;59136.06;;;-140.20;100.00
5126;BME280;63008;53.112;8.896;2024-03-02T02:36:24;59144.44;;;-140.20;100.00
5126;BME280;63008;53.112;8.896;2024-03-02T02:38:25;59184.16;;;-140.20;100.00
5126;BME280;63008;53.112;8.896;2024-03-02T02:40:26;59159.06;;;-140.20;100.00
5126;BME280;63008;53.112;8.896;2024-03-02T02:42:27;59188.34;;;-140.20;100.00
5126;BME280;63008;53.112;8.896;2024-03-02T02:44:28;59192.53;;;-140.20;100.00
5126;BME280;63008;53.112;8.896;2024-03-02T02:46:29;59167.44;;;-140.20;100.00
5126;BME280;63008;53.112;8.896;2024-03-02T02:48:30;59150.72;;;-140.20;100.00
5126;BME280;63008;53.112;8.896;2024-03-02T02:50:31;59213.44;;;-140.20;100.00
5126;BME280;63008;53.112;8.896;2024-03-02T02:52:33;59190.44;;;-140.20;100.00
5126;BME280;63008;53.112;8.896;2024-03-02T02:54:37;59154.88;;;-140.20;100.00
5126;BME280;63008;53.112;8.896;2024-03-02T02:56:38;59169.53;;;-140.20;100.00
5126;BME280;63008;53.112;8.896;2024-03-02T02:58:42;59129.81;;;-140.20;100.00
5126;BME280;63008;53.112;8.896;2024-03-02T03:00:43;59163.25;;;-140.20;100.00
5126;BME280;63008;53.112;8.896;2024-03-02T03:02:47;59165.34;;;-140.20;100.00
5126;BME280;63008;53.112;8.896;2024-03-02T03:04:48;59186.25;;;-140.20;100.00
5126;BME280;63008;53.112;8.896;2024-03-02T03:06:49;59171.63;;;-140.20;100.00
5126;BME280;63008;53.112;8.896;2024-03-02T03:08:50;59175.81;;;-140.20;100.00
5126;BME280;63008;53.112;8.896;2024-03-02T03:10:51;59144.44;;;-140.20;100.00
5126;BME280;63008;53.112;8.896;2024-03-02T03:12:52;59171.63;;;-140.20;100.00
5126;BME280;63008;53.112;8.896;2024-03-02T03:14:54;59106.81;;;-140.20;100.00
5126;BME280;63008;53.112;8.896;2024-03-02T03:16:54;59186.25;;;-140.20;100.00
5126;BME280;63008;53.112;8.896;2024-03-02T03:18:55;59136.06;;;-140.20;100.00
5126;BME280;63008;53.112;8.896;2024-03-02T03:20:56;59159.06;;;-140.20;100.00
5126;BME280;63008;53.112;8.896;2024-03-02T03:22:57;59161.16;;;-140.20;100.00
5126;BME280;63008;53.112;8.896;2024-03-02T03:24:58;59171.63;;;-140.20;100.00
5126;BME280;63008;53.112;8.896;2024-03-02T03:27:00;59182.06;;;-140.20;100.00
5126;BME280;63008;53.112;8.896;2024-03-02T03:29:01;59188.34;;;-140.20;100.00
5126;BME280;63008;53.112;8.896;2024-03-02T03:31:03;59182.06;;;-140.20;100.00
5126;BME280;63008;53.112;8.896;2024-03-02T03:33:04;59167.44;;;-140.20;100.00
5126;BME280;63008;53.112;8.896;2024-03-02T03:35:09;59177.88;;;-140.20;100.00
5126;BME280;63008;53.112;8.896;2024-03-02T03:37:10;59196.72;;;-140.20;100.00
5126;BME280;63008;53.112;8.896;2024-03-02T03:39:11;59169.53;;;-140.20;100.00
5126;BME280;63008;53.112;8.896;2024-03-02T03:41:12;59179.97;;;-140.20;100.00
5126;BME280;63008;53.112;8.896;2024-03-02T03:43:13;59108.91;;;-140.20;100.00
5126;BME280;63008;53.112;8.896;2024-03-02T03:45:14;59167.44;;;-140.20;100.00
5126;BME280;63008;53.112;8.896;2024-03-02T03:47:15;59173.72;;;-140.20;100.00
5126;BME280;63008;53.112;8.896;2024-03-02T03:49:16;59209.25;;;-140.20;100.00
5126;BME280;63008;53.112;8.896;2024-03-02T03:51:18;59205.06;;;-140.20;100.00
5126;BME280;63008;53.112;8.896;2024-03-02T03:53:19;59215.53;;;-140.20;100.00
5126;BME280;63008;53.112;8.896;2024-03-02T03:55:20;59131.91;;;-140.20;100.00
5126;BME280;63008;53.112;8.896;2024-03-02T03:57:21;59182.06;;;-140.20;100.00
5126;BME280;63008;53.112;8.896;2024-03-02T03:59:22;59136.06;;;-140.20;100.00
5126;BME280;63008;53.112;8.896;2024-03-02T04:01:23;59182.06;;;-140.20;100.00
5126;BME280;63008;53.112;8.896;2024-03-02T04:03:24;59167.44;;;-140.20;100.00
5126;BME280;63008;53.112;8.896;2024-03-02T04:05:26;59213.44;;;-140.20;100.00
5126;BME280;63008;53.112;8.896;2024-03-02T04:07:28;59167.44;;;-140.20;100.00
5126;BME280;63008;53.112;8.896;2024-03-02T04:09:29;59198.81;;;-140.20;100.00
5126;BME280;63008;53.112;8.896;2024-03-02T04:11:30;59188.34;;;-140.20;100.00
5126;BME280;63008;53.112;8.896;2024-03-02T04:13:31;59152.81;;;-140.20;100.00
5126;BME280;63008;53.112;8.896;2024-03-02T04:15:32;59190.44;;;-140.20;100.00
5126;BME280;63008;53.112;8.896;2024-03-02T04:17:33;59136.06;;;-140.20;100.00
5126;BME280;63008;53.112;8.896;2024-03-02T04:19:34;59188.34;;;-140.20;100.00
5126;BME280;63008;53.112;8.896;2024-03-02T04:21:35;59171.63;;;-140.20;100.00
5126;BME280;63008;53.112;8.896;2024-03-02T04:23:36;59202.97;;;-140.20;100.00
5126;BME280;63008;53.112;8.896;2024-03-02T04:25:37;59182.06;;;-140.20;100.00
5126;BME280;63008;53.112;8.896;2024-03-02T04:27:38;59165.34;;;-140.20;100.00
5126;BME280;63008;53.112;8.896;2024-03-02T04:29:39;59152.81;;;-140.20;100.00
5126;BME280;63008;53.112;8.896;2024-03-02T04:31:40;59171.63;;;-140.20;100.00
5126;BME280;63008;53.112;8.896;2024-03-02T04:33:41;59144.44;;;-140.20;100.00
5126;BME280;63008;53.112;8.896;2024-03-02T04:35:42;59156.97;;;-140.20;100.00
5126;BME280;63008;53.112;8.896;2024-03-02T04:37:43;59182.06;;;-140.20;100.00
5126;BME280;63008;53.112;8.896;2024-03-02T04:39:44;59136.06;;;-140.20;100.00
5126;BME280;63008;53.112;8.896;2024-03-02T04:41:45;59169.53;;;-140.20;100.00
5126;BME280;63008;53.112;8.896;2024-03-02T04:43:46;59167.44;;;-140.20;100.00
5126;BME280;63008;53.112;8.896;2024-03-02T04:45:47;59127.72;;;-140.20;100.00
5126;BME280;63008;53.112;8.896;2024-03-02T04:47:48;59167.44;;;-140.20;100.00
5126;BME280;63008;53.112;8.896;2024-03-02T04:49:49;59175.81;;;-140.20;100.00
5126;BME280;63008;53.112;8.896;2024-03-02T04:51:51;59154.88;;;-140.20;100.00
5126;BME280;63008;53.112;8.896;2024-03-02T04:53:52;59192.53;;;-140.20;100.00
5126;BME280;63008;53.112;8.896;2024-03-02T04:55:53;59127.72;;;-140.20;100.00
5126;BME280;63008;53.112;8.896;2024-03-02T04:57:55;59169.53;;;-140.20;100.00
5126;BME280;63008;53.112;8.896;2024-03-02T04:59:56;59154.88;;;-140.20;100.00
5126;BME280;63008;53.112;8.896;2024-03-02T05:01:57;59200.88;;;-140.20;100.00
5126;BME280;63008;53.112;8.896;2024-03-02T05:03:59;59140.25;;;-140.20;100.00
5126;BME280;63008;53.112;8.896;2024-03-02T05:06:00;59131.91;;;-140.20;100.00
5126;BME280;63008;53.112;8.896;2024-03-02T05:08:01;59194.63;;;-140.20;100.00
5126;BME280;63008;53.112;8.896;2024-03-02T05:10:02;59202.97;;;-140.20;100.00
5126;BME280;63008;53.112;8.896;2024-03-02T05:12:03;59163.25;;;-140.20;100.00
5126;BME280;63008;53.112;8.896;2024-03-02T05:14:36;59165.34;;;-140.20;100.00
5126;BME280;63008;53.112;8.896;2024-03-02T05:16:37;59154.88;;;-140.20;100.00
5126;BME280;63008;53.112;8.896;2024-03-02T05:18:42;59186.25;;;-140.20;100.00
5126;BME280;63008;53.112;8.896;2024-03-02T05:20:43;59192.53;;;-140.20;100.00
5126;BME280;63008;53.112;8.896;2024-03-02T05:22:44;59154.88;;;-140.20;100.00
5126;BME280;63008;53.112;8.896;2024-03-02T05:24:45;59202.97;;;-140.20;100.00
5126;BME280;63008;53.112;8.896;2024-03-02T05:26:46;59167.44;;;-140.20;100.00
5126;BME280;63008;53.112;8.896;2024-03-02T05:28:47;59190.44;;;-140.20;100.00
5126;BME280;63008;53.112;8.896;2024-03-02T05:30:48;59196.72;;;-140.20;100.00
5126;BME280;63008;53.112;8.896;2024-03-02T05:32:49;59173.72;;;-140.20;100.00
5126;BME280;63008;53.112;8.896;2024-03-02T05:34:50;59179.97;;;-140.20;100.00
5126;BME280;63008;53.112;8.896;2024-03-02T05:36:51;59144.44;;;-140.20;100.00
5126;BME280;63008;53.112;8.896;2024-03-02T05:38:52;59173.72;;;-140.20;100.00
5126;BME280;63008;53.112;8.896;2024-03-02T05:40:53;59142.34;;;-140.20;100.00
5126;BME280;63008;53.112;8.896;2024-03-02T05:42:54;59198.81;;;-140.20;100.00
5126;BME280;63008;53.112;8.896;2024-03-02T05:44:55;59136.06;;;-140.20;100.00
5126;BME280;63008;53.112;8.896;2024-03-02T05:46:56;59188.34;;;-140.20;100.00
5126;BME280;63008;53.112;8.896;2024-03-02T05:48:57;59169.53;;;-140.20;100.00
5126;BME280;63008;53.112;8.896;2024-03-02T05:50:59;59156.97;;;-140.20;100.00
5126;BME280;63008;53.112;8.896;2024-03-02T05:53:00;59228.06;;;-140.20;100.00
5126;BME280;63008;53.112;8.896;2024-03-02T05:55:01;59190.44;;;-140.20;100.00
5126;BME280;63008;53.112;8.896;2024-03-02T05:57:02;59154.88;;;-140.20;100.00
5126;BME280;63008;53.112;8.896;2024-03-02T05:59:17;59131.91;;;-140.20;100.00
5126;BME280;63008;53.112;8.896;2024-03-02T06:01:18;59161.16;;;-140.20;100.00
5126;BME280;63008;53.112;8.896;2024-03-02T06:03:19;59159.06;;;-140.20;100.00
5126;BME280;63008;53.112;8.896;2024-03-02T06:05:20;59150.72;;;-140.20;100.00
5126;BME280;63008;53.112;8.896;2024-03-02T06:07:21;59140.25;;;-140.20;100.00
5126;BME280;63008;53.112;8.896;2024-03-02T06:09:22;59163.25;;;-140.20;100.00
5126;BME280;63008;53.112;8.896;2024-03-02T06:11:25;59182.06;;;-140.20;100.00
5126;BME280;63008;53.112;8.896;2024-03-02T06:13:26;59161.16;;;-140.20;100.00
5126;BME280;63008;53.112;8.896;2024-03-02T06:15:27;59198.81;;;-140.20;100.00
5126;BME280;63008;53.112;8.896;2024-03-02T06:17:28;59163.25;;;-140.20;100.00
5126;BME280;63008;53.112;8.896;2024-03-02T06:19:29;59140.25;;;-140.20;100.00
5126;BME280;63008;53.112;8.896;2024-03-02T06:21:30;59129.81;;;-140.20;100.00
5126;BME280;63008;53.112;8.896;2024-03-02T06:23:31;59179.97;;;-140.20;100.00
5126;BME280;63008;53.112;8.896;2024-03-02T06:25:32;59129.81;;;-140.20;100.00
5126;BME280;63008;53.112;8.896;2024-03-02T06:27:34;59131.91;;;-140.20;100.00
5126;BME280;63008;53.112;8.896;2024-03-02T06:29:35;59167.44;;;-140.20;100.00
5126;BME280;63008;53.112;8.896;2024-03-02T06:31:36;59175.81;;;-140.20;100.00
5126;BME280;63008;53.112;8.896;2024-03-02T06:33:37;59207.16;;;-140.20;100.00
5126;BME280;63008;53.112;8.896;2024-03-02T06:35:38;59144.44;;;-140.20;100.00
5126;BME280;63008;53.112;8.896;2024-03-02T06:37:39;59169.53;;;-140.20;100.00
5126;BME280;63008;53.112;8.896;2024-03-02T06:39:41;59146.53;;;-140.20;100.00
5126;BME280;63008;53.112;8.896;2024-03-02T06:41:42;59177.88;;;-140.20;100.00
5126;BME280;63008;53.112;8.896;2024-03-02T06:43:47;59190.44;;;-140.20;100.00
5126;BME280;63008;53.112;8.896;2024-03-02T06:45:51;59165.34;;;-140.20;100.00
5126;BME280;63008;53.112;8.896;2024-03-02T06:47:52;59173.72;;;-140.20;100.00
5126;BME280;63008;53.112;8.896;2024-03-02T06:49:53;59175.81;;;-140.20;100.00
5126;BME280;63008;53.112;8.896;2024-03-02T06:51:54;59190.44;;;-140.20;100.00
5126;BME280;63008;53.112;8.896;2024-03-02T06:53:56;59169.53;;;-140.20;100.00
5126;BME280;63008;53.112;8.896;2024-03-02T06:55:57;59140.25;;;-140.20;100.00
5126;BME280;63008;53.112;8.896;2024-03-02T06:57:58;59169.53;;;-140.20;100.00
5126;BME280;63008;53.112;8.896;2024-03-02T06:59:59;59169.53;;;-140.20;100.00
5126;BME280;63008;53.112;8.896;2024-03-02T07:02:01;59188.34;;;-140.20;100.00
5126;BME280;63008;53.112;8.896;2024-03-02T07:04:02;59152.81;;;-140.20;100.00
5126;BME280;63008;53.112;8.896;2024-03-02T07:06:03;59186.25;;;-140.20;100.00
5126;BME280;63008;53.112;8.896;2024-03-02T07:08:05;59194.63;;;-140.20;100.00
5126;BME280;63008;53.112;8.896;2024-03-02T07:10:07;59173.72;;;-140.20;100.00
5126;BME280;63008;53.112;8.896;2024-03-02T07:12:09;59171.63;;;-140.20;100.00
5126;BME280;63008;53.112;8.896;2024-03-02T07:14:10;59202.97;;;-140.20;100.00
5126;BME280;63008;53.112;8.896;2024-03-02T07:16:11;59175.81;;;-140.20;100.00
5126;BME280;63008;53.112;8.896;2024-03-02T07:18:30;59167.44;;;-140.20;100.00
5126;BME280;63008;53.112;8.896;2024-03-02T07:20:31;59169.53;;;-140.20;100.00
5126;BME280;63008;53.112;8.896;2024-03-02T07:22:32;59177.88;;;-140.20;100.00
5126;BME280;63008;53.112;8.896;2024-03-02T07:24:41;59140.25;;;-140.20;100.00
5126;BME280;63008;53.112;8.896;2024-03-02T07:26:42;59184.16;;;-140.20;100.00
5126;BME280;63008;53.112;8.896;2024-03-02T07:28:46;59163.25;;;-140.20;100.00
5126;BME280;63008;53.112;8.896;2024-03-02T07:31:01;59138.16;;;-140.20;100.00
5126;BME280;63008;53.112;8.896;2024-03-02T07:33:02;59198.81;;;-140.20;100.00
5126;BME280;63008;53.112;8.896;2024-03-02T07:35:04;59169.53;;;-140.20;100.00
5126;BME280;63008;53.112;8.896;2024-03-02T07:37:05;59138.16;;;-140.20;100.00
5126;BME280;63008;53.112;8.896;2024-03-02T07:39:06;59173.72;;;-140.20;100.00
5126;BME280;63008;53.112;8.896;2024-03-02T07:41:08;59152.81;;;-140.20;100.00
5126;BME280;63008;53.112;8.896;2024-03-02T07:43:09;59188.34;;;-140.20;100.00
5126;BME280;63008;53.112;8.896;2024-03-02T07:45:11;59186.25;;;-140.20;100.00
5126;BME280;63008;53.112;8.896;2024-03-02T07:47:12;59140.25;;;-140.20;100.00
5126;BME280;63008;53.112;8.896;2024-03-02T07:49:13;59140.25;;;-140.20;100.00
5126;BME280;63008;53.112;8.896;2024-03-02T07:51:16;59154.88;;;-140.20;100.00
5126;BME280;63008;53.112;8.896;2024-03-02T07:53:18;59184.16;;;-140.20;100.00
5126;BME280;63008;53.112;8.896;2024-03-02T07:55:19;59148.63;;;-140.20;100.00
5126;BME280;63008;53.112;8.896;2024-03-02T07:57:20;59173.72;;;-140.20;100.00
5126;BME280;63008;53.112;8.896;2024-03-02T07:59:21;59108.91;;;-140.20;100.00
5126;BME280;63008;53.112;8.896;2024-03-02T08:01:22;59152.81;;;-140.20;100.00
5126;BME280;63008;53.112;8.896;2024-03-02T08:03:24;59173.72;;;-140.20;100.00
5126;BME280;63008;53.112;8.896;2024-03-02T08:05:25;59146.53;;;-140.20;100.00
5126;BME280;63008;53.112;8.896;2024-03-02T08:07:26;59133.97;;;-140.20;100.00
5126;BME280;63008;53.112;8.896;2024-03-02T08:09:27;59152.81;;;-140.20;100.00
5126;BME280;63008;53.112;8.896;2024-03-02T08:11:28;59161.16;;;-140.20;100.00
5126;BME280;63008;53.112;8.896;2024-03-02T08:13:29;59173.72;;;-140.20;100.00
5126;BME280;63008;53.112;8.896;2024-03-02T08:15:30;59136.06;;;-140.20;100.00
5126;BME280;63008;53.112;8.896;2024-03-02T08:17:31;59140.25;;;-140.20;100.00
5126;BME280;63008;53.112;8.896;2024-03-02T08:19:32;59163.25;;;-140.20;100.00
5126;BME280;63008;53.112;8.896;2024-03-02T08:21:33;59175.81;;;-140.20;100.00
5126;BME280;63008;53.112;8.896;2024-03-02T08:23:36;59161.16;;;-140.20;100.00
5126;BME280;63008;53.112;8.896;2024-03-02T08:25:38;59131.91;;;-140.20;100.00
5126;BME280;63008;53.112;8.896;2024-03-02T08:27:39;59161.16;;;-140.20;100.00
5126;BME280;63008;53.112;8.896;2024-03-02T08:29:41;59173.72;;;-140.20;100.00
5126;BME280;63008;53.112;8.896;2024-03-02T08:31:42;59154.88;;;-140.20;100.00
5126;BME280;63008;53.112;8.896;2024-03-02T08:33:43;59163.25;;;-140.20;100.00
5126;BME280;63008;53.112;8.896;2024-03-02T08:35:44;59123.53;;;-140.20;100.00
5126;BME280;63008;53.112;8.896;2024-03-02T08:37:47;59142.34;;;-140.20;100.00
5126;BME280;63008;53.112;8.896;2024-03-02T08:39:48;59163.25;;;-140.20;100.00
5126;BME280;63008;53.112;8.896;2024-03-02T08:41:49;59129.81;;;-140.20;100.00
5126;BME280;63008;53.112;8.896;2024-03-02T08:43:51;59165.34;;;-140.20;100.00
5126;BME280;63008;53.112;8.896;2024-03-02T08:45:51;59169.53;;;-140.20;100.00
5126;BME280;63008;53.112;8.896;2024-03-02T08:47:52;59125.63;;;-140.20;99.65
5126;BME280;63008;53.112;8.896;2024-03-02T08:49:53;59138.16;;;-140.20;99.49
5126;BME280;63008;53.112;8.896;2024-03-02T08:51:54;59154.88;;;-140.20;99.35
5126;BME280;63008;53.112;8.896;2024-03-02T08:53:56;59127.72;;;-140.20;98.99
5126;BME280;63008;53.112;8.896;2024-03-02T08:55:57;59152.81;;;-140.20;98.41
5126;BME280;63008;53.112;8.896;2024-03-02T08:57:58;59144.44;;;-140.20;97.02
5126;BME280;63008;53.112;8.896;2024-03-02T08:59:59;59148.63;;;-140.20;96.72
5126;BME280;63008;53.112;8.896;2024-03-02T09:02:00;59161.16;;;-140.20;95.75
5126;BME280;63008;53.112;8.896;2024-03-02T09:04:01;59119.34;;;-140.20;93.89
5126;BME280;63008;53.112;8.896;2024-03-02T09:06:03;59123.53;;;-140.20;92.94
5126;BME280;63008;53.112;8.896;2024-03-02T09:08:04;59140.25;;;-140.20;91.49
5126;BME280;63008;53.112;8.896;2024-03-02T09:10:06;59154.88;;;-140.20;92.66
5126;BME280;63008;53.112;8.896;2024-03-02T09:12:07;59165.34;;;-140.20;88.23
5126;BME280;63008;53.112;8.896;2024-03-02T09:14:08;59108.91;;;-140.20;88.05
5126;BME280;63008;53.112;8.896;2024-03-02T09:16:09;59127.72;;;-140.20;86.74
5126;BME280;63008;53.112;8.896;2024-03-02T09:18:11;59119.34;;;-140.20;87.02
5126;BME280;63008;53.112;8.896;2024-03-02T09:20:12;59133.97;;;-140.20;85.74
5126;BME280;63008;53.112;8.896;2024-03-02T09:22:14;59133.97;;;-140.20;84.13
5126;BME280;63008;53.112;8.896;2024-03-02T09:24:15;59121.44;;;-140.20;85.10
5126;BME280;63008;53.112;8.896;2024-03-02T09:26:16;59113.06;;;-140.20;84.12
5126;BME280;63008;53.112;8.896;2024-03-02T09:28:17;59096.34;;;-140.20;84.42
5126;BME280;63008;53.112;8.896;2024-03-02T09:30:19;59136.06;;;-140.20;83.45
5126;BME280;63008;53.112;8.896;2024-03-02T09:32:20;59127.72;;;-140.20;82.21
5126;BME280;63008;53.112;8.896;2024-03-02T09:34:21;59098.44;;;-140.20;82.10
5126;BME280;63008;53.112;8.896;2024-03-02T09:36:23;59106.81;;;-140.20;81.97
5126;BME280;63008;53.112;8.896;2024-03-02T09:38:24;59131.91;;;-140.20;82.29
5126;BME280;63008;53.112;8.896;2024-03-02T09:40:25;59085.91;;;-140.20;80.20
5126;BME280;63008;53.112;8.896;2024-03-02T09:42:26;59150.72;;;-140.20;80.01
5126;BME280;63008;53.112;8.896;2024-03-02T09:44:27;59083.81;;;-140.20;78.80
5126;BME280;63008;53.112;8.896;2024-03-02T09:46:28;59119.34;;;-140.20;78.97
5126;BME280;63008;53.112;8.896;2024-03-02T09:48:29;59104.72;;;-140.20;79.22
5126;BME280;63008;53.112;8.896;2024-03-02T09:50:30;59115.16;;;-140.20;79.30
5126;BME280;63008;53.112;8.896;2024-03-02T09:52:32;59106.81;;;-140.20;80.33
5126;BME280;63008;53.112;8.896;2024-03-02T09:54:33;59125.63;;;-140.20;78.27
5126;BME280;63008;53.112;8.896;2024-03-02T09:56:34;59113.06;;;-140.20;77.46
5126;BME280;63008;53.112;8.896;2024-03-02T09:58:35;59110.97;;;-140.20;78.95
5126;BME280;63008;53.112;8.896;2024-03-02T10:00:36;59129.81;;;-140.20;78.67
5126;BME280;63008;53.112;8.896;2024-03-02T10:02:37;59085.91;;;-140.20;77.93
5126;BME280;63008;53.112;8.896;2024-03-02T10:04:38;59077.53;;;-140.20;77.68
5126;BME280;63008;53.112;8.896;2024-03-02T10:06:39;59062.91;;;-140.20;77.38
5126;BME280;63008;53.112;8.896;2024-03-02T10:08:43;59131.91;;;-140.20;76.38
5126;BME280;63008;53.112;8.896;2024-03-02T10:10:49;59083.81;;;-140.20;77.30
5126;BME280;63008;53.112;8.896;2024-03-02T10:13:03;59081.72;;;-140.20;75.39
5126;BME280;63008;53.112;8.896;2024-03-02T10:15:04;59081.72;;;-140.20;74.95
5126;BME280;63008;53.112;8.896;2024-03-02T10:17:07;59131.91;;;-140.20;73.75
5126;BME280;63008;53.112;8.896;2024-03-02T10:19:22;59075.44;;;-140.20;73.56
5126;BME280;63008;53.112;8.896;2024-03-02T10:21:23;59098.44;;;-140.20;73.10
5126;BME280;63008;53.112;8.896;2024-03-02T10:23:26;59090.06;;;-140.20;72.06
5126;BME280;63008;53.112;8.896;2024-03-02T10:25:33;59113.06;;;-140.20;73.29
5126;BME280;63008;53.112;8.896;2024-03-02T10:27:35;59083.81;;;-140.20;72.42
5126;BME280;63008;53.112;8.896;2024-03-02T10:29:39;59104.72;;;-140.20;71.64
5126;BME280;63008;53.112;8.896;2024-03-02T10:31:43;59083.81;;;-140.20;71.28
5126;BME280;63008;53.112;8.896;2024-03-02T10:33:44;59083.81;;;-140.20;70.57